sensor_id;sensor_type;location;lat;lon;timestamp;P1;durP1;ratioP1;P2;durP2;ratioP2
69305;SDS011;56427;51.580;4.656;2024-01-07T00:00:25;11.50;;;6.13;;
69305;SDS011;56427;51.580;4.656;2024-01-07T00:02:51;13.70;;;8.37;;
69305;SDS011;56427;51.580;4.656;2024-01-07T00:05:16;16.02;;;9.68;;
69305;SDS011;56427;51.580;4.656;2024-01-07T00:07:41;16.52;;;9.00;;
69305;SDS011;56427;51.580;4.656;2024-01-07T00:10:07;16.77;;;10.23;;
69305;SDS011;56427;51.580;4.656;2024-01-07T00:12:34;15.32;;;8.85;;
69305;SDS011;56427;51.580;4.656;2024-01-07T00:15:00;17.47;;;9.23;;
69305;SDS011;56427;51.580;4.656;2024-01-07T00:17:26;17.90;;;10.20;;
69305;SDS011;56427;51.580;4.656;2024-01-07T00:19:51;16.03;;;8.30;;
69305;SDS011;56427;51.580;4.656;2024-01-07T00:22:16;19.07;;;9.70;;
69305;SDS011;56427;51.580;4.656;2024-01-07T00:24:42;14.85;;;8.23;;
69305;SDS011;56427;51.580;4.656;2024-01-07T00:27:07;16.87;;;9.90;;
69305;SDS011;56427;51.580;4.656;2024-01-07T00:29:33;13.17;;;8.53;;
69305;SDS011;56427;51.580;4.656;2024-01-07T00:32:00;23.67;;;10.77;;
69305;SDS011;56427;51.580;4.656;2024-01-07T00:34:25;21.03;;;10.70;;
69305;SDS011;56427;51.580;4.656;2024-01-07T00:36:51;16.83;;;9.40;;
69305;SDS011;56427;51.580;4.656;2024-01-07T00:39:16;19.25;;;10.05;;
69305;SDS011;56427;51.580;4.656;2024-01-07T00:41:41;18.33;;;10.17;;
69305;SDS011;56427;51.580;4.656;2024-01-07T00:44:07;19.23;;;9.83;;
69305;SDS011;56427;51.580;4.656;2024-01-07T00:46:32;18.00;;;10.60;;
69305;SDS011;56427;51.580;4.656;2024-01-07T00:48:57;17.40;;;10.13;;
69305;SDS011;56427;51.580;4.656;2024-01-07T00:51:23;19.63;;;10.53;;
69305;SDS011;56427;51.580;4.656;2024-01-07T00:53:48;19.60;;;10.73;;
69305;SDS011;56427;51.580;4.656;2024-01-07T00:56:14;15.00;;;9.50;;
69305;SDS011;56427;51.580;4.656;2024-01-07T00:58:39;19.08;;;10.57;;
69305;SDS011;56427;51.580;4.656;2024-01-07T01:01:05;17.77;;;8.80;;
69305;SDS011;56427;51.580;4.656;2024-01-07T01:03:30;15.63;;;8.17;;
69305;SDS011;56427;51.580;4.656;2024-01-07T01:05:56;16.15;;;9.55;;
69305;SDS011;56427;51.580;4.656;2024-01-07T01:08:21;12.88;;;7.35;;
69305;SDS011;56427;51.580;4.656;2024-01-07T01:10:48;17.43;;;10.30;;
69305;SDS011;56427;51.580;4.656;2024-01-07T01:13:13;15.65;;;7.70;;
69305;SDS011;56427;51.580;4.656;2024-01-07T01:15:39;14.03;;;7.47;;
69305;SDS011;56427;51.580;4.656;2024-01-07T01:18:04;18.07;;;8.90;;
69305;SDS011;56427;51.580;4.656;2024-01-07T01:20:30;19.00;;;10.40;;
69305;SDS011;56427;51.580;4.656;2024-01-07T01:22:55;16.87;;;8.43;;
69305;SDS011;56427;51.580;4.656;2024-01-07T01:25:21;19.57;;;10.33;;
69305;SDS011;56427;51.580;4.656;2024-01-07T01:27:46;15.57;;;8.03;;
69305;SDS011;56427;51.580;4.656;2024-01-07T01:30:12;19.23;;;10.40;;
69305;SDS011;56427;51.580;4.656;2024-01-07T01:32:38;15.63;;;8.17;;
69305;SDS011;56427;51.580;4.656;2024-01-07T01:35:04;19.98;;;10.07;;
69305;SDS011;56427;51.580;4.656;2024-01-07T01:37:30;15.05;;;7.15;;
69305;SDS011;56427;51.580;4.656;2024-01-07T01:39:57;18.02;;;9.45;;
69305;SDS011;56427;51.580;4.656;2024-01-07T01:42:23;17.43;;;8.60;;
69305;SDS011;56427;51.580;4.656;2024-01-07T01:44:49;20.80;;;10.90;;
69305;SDS011;56427;51.580;4.656;2024-01-07T01:47:14;18.47;;;10.80;;
69305;SDS011;56427;51.580;4.656;2024-01-07T01:49:40;17.35;;;9.63;;
69305;SDS011;56427;51.580;4.656;2024-01-07T01:52:05;17.00;;;9.90;;
69305;SDS011;56427;51.580;4.656;2024-01-07T01:54:31;15.75;;;8.98;;
69305;SDS011;56427;51.580;4.656;2024-01-07T01:56:56;20.30;;;10.27;;
69305;SDS011;56427;51.580;4.656;2024-01-07T01:59:22;21.95;;;11.60;;
69305;SDS011;56427;51.580;4.656;2024-01-07T02:01:48;16.73;;;10.23;;
69305;SDS011;56427;51.580;4.656;2024-01-07T02:04:14;21.75;;;12.15;;
69305;SDS011;56427;51.580;4.656;2024-01-07T02:06:40;18.67;;;10.00;;
69305;SDS011;56427;51.580;4.656;2024-01-07T02:09:06;15.20;;;8.33;;
69305;SDS011;56427;51.580;4.656;2024-01-07T02:11:31;13.93;;;8.40;;
69305;SDS011;56427;51.580;4.656;2024-01-07T02:13:56;13.03;;;7.77;;
69305;SDS011;56427;51.580;4.656;2024-01-07T02:16:21;13.03;;;7.93;;
69305;SDS011;56427;51.580;4.656;2024-01-07T02:18:47;20.03;;;11.77;;
69305;SDS011;56427;51.580;4.656;2024-01-07T02:21:13;13.95;;;8.68;;
69305;SDS011;56427;51.580;4.656;2024-01-07T02:23:38;18.27;;;10.50;;
69305;SDS011;56427;51.580;4.656;2024-01-07T02:26:04;12.13;;;7.40;;
69305;SDS011;56427;51.580;4.656;2024-01-07T02:28:30;14.13;;;8.83;;
69305;SDS011;56427;51.580;4.656;2024-01-07T02:30:55;16.10;;;9.32;;
69305;SDS011;56427;51.580;4.656;2024-01-07T02:33:21;13.17;;;7.57;;
69305;SDS011;56427;51.580;4.656;2024-01-07T02:35:46;18.50;;;8.37;;
69305;SDS011;56427;51.580;4.656;2024-01-07T02:38:12;18.30;;;10.00;;
69305;SDS011;56427;51.580;4.656;2024-01-07T02:40:37;13.32;;;8.60;;
69305;SDS011;56427;51.580;4.656;2024-01-07T02:43:02;17.10;;;9.40;;
69305;SDS011;56427;51.580;4.656;2024-01-07T02:45:28;15.77;;;9.73;;
69305;SDS011;56427;51.580;4.656;2024-01-07T02:47:53;20.93;;;11.40;;
69305;SDS011;56427;51.580;4.656;2024-01-07T02:50:19;17.47;;;9.47;;
69305;SDS011;56427;51.580;4.656;2024-01-07T02:52:44;19.37;;;8.00;;
69305;SDS011;56427;51.580;4.656;2024-01-07T02:55:09;14.32;;;8.50;;
69305;SDS011;56427;51.580;4.656;2024-01-07T02:57:35;14.33;;;8.53;;
69305;SDS011;56427;51.580;4.656;2024-01-07T03:00:00;14.67;;;8.73;;
69305;SDS011;56427;51.580;4.656;2024-01-07T03:02:26;18.97;;;10.93;;
69305;SDS011;56427;51.580;4.656;2024-01-07T03:04:51;24.97;;;13.07;;
69305;SDS011;56427;51.580;4.656;2024-01-07T03:07:16;19.67;;;11.13;;
69305;SDS011;56427;51.580;4.656;2024-01-07T03:09:42;17.77;;;9.60;;
69305;SDS011;56427;51.580;4.656;2024-01-07T03:12:08;22.47;;;12.13;;
69305;SDS011;56427;51.580;4.656;2024-01-07T03:14:33;20.27;;;10.20;;
69305;SDS011;56427;51.580;4.656;2024-01-07T03:16:58;19.92;;;10.98;;
69305;SDS011;56427;51.580;4.656;2024-01-07T03:19:24;17.97;;;10.30;;
69305;SDS011;56427;51.580;4.656;2024-01-07T03:21:50;19.30;;;10.87;;
69305;SDS011;56427;51.580;4.656;2024-01-07T03:24:15;22.77;;;11.93;;
69305;SDS011;56427;51.580;4.656;2024-01-07T03:26:40;21.23;;;12.87;;
69305;SDS011;56427;51.580;4.656;2024-01-07T03:29:06;19.17;;;10.73;;
69305;SDS011;56427;51.580;4.656;2024-01-07T03:31:31;16.90;;;9.67;;
69305;SDS011;56427;51.580;4.656;2024-01-07T03:33:57;19.33;;;9.30;;
69305;SDS011;56427;51.580;4.656;2024-01-07T03:36:22;19.60;;;10.33;;
69305;SDS011;56427;51.580;4.656;2024-01-07T03:38:47;20.83;;;10.90;;
69305;SDS011;56427;51.580;4.656;2024-01-07T03:41:16;16.73;;;10.17;;
69305;SDS011;56427;51.580;4.656;2024-01-07T03:43:48;17.93;;;10.63;;
69305;SDS011;56427;51.580;4.656;2024-01-07T03:46:14;20.77;;;10.35;;
69305;SDS011;56427;51.580;4.656;2024-01-07T03:48:40;22.70;;;12.65;;
69305;SDS011;56427;51.580;4.656;2024-01-07T03:51:06;15.13;;;9.52;;
69305;SDS011;56427;51.580;4.656;2024-01-07T03:53:32;18.40;;;10.57;;
69305;SDS011;56427;51.580;4.656;2024-01-07T03:55:57;22.02;;;11.38;;
69305;SDS011;56427;51.580;4.656;2024-01-07T03:58:23;19.73;;;10.45;;
69305;SDS011;56427;51.580;4.656;2024-01-07T04:00:48;20.23;;;11.03;;
69305;SDS011;56427;51.580;4.656;2024-01-07T04:03:13;19.47;;;10.93;;
69305;SDS011;56427;51.580;4.656;2024-01-07T04:05:39;17.13;;;8.83;;
69305;SDS011;56427;51.580;4.656;2024-01-07T04:08:04;22.33;;;12.70;;
69305;SDS011;56427;51.580;4.656;2024-01-07T04:10:30;22.87;;;12.77;;
69305;SDS011;56427;51.580;4.656;2024-01-07T04:12:55;24.10;;;12.60;;
69305;SDS011;56427;51.580;4.656;2024-01-07T04:15:21;19.60;;;11.23;;
69305;SDS011;56427;51.580;4.656;2024-01-07T04:17:46;22.20;;;11.33;;
69305;SDS011;56427;51.580;4.656;2024-01-07T04:20:15;23.83;;;13.47;;
69305;SDS011;56427;51.580;4.656;2024-01-07T04:22:40;19.92;;;11.10;;
69305;SDS011;56427;51.580;4.656;2024-01-07T04:25:06;17.67;;;9.97;;
69305;SDS011;56427;51.580;4.656;2024-01-07T04:27:33;18.00;;;9.23;;
69305;SDS011;56427;51.580;4.656;2024-01-07T04:30:00;25.15;;;12.40;;
69305;SDS011;56427;51.580;4.656;2024-01-07T04:32:25;16.90;;;8.73;;
69305;SDS011;56427;51.580;4.656;2024-01-07T04:34:51;23.75;;;11.55;;
69305;SDS011;56427;51.580;4.656;2024-01-07T04:37:16;24.57;;;12.40;;
69305;SDS011;56427;51.580;4.656;2024-01-07T04:39:41;21.73;;;11.53;;
69305;SDS011;56427;51.580;4.656;2024-01-07T04:42:07;24.27;;;12.73;;
69305;SDS011;56427;51.580;4.656;2024-01-07T04:44:32;25.80;;;12.80;;
69305;SDS011;56427;51.580;4.656;2024-01-07T04:46:57;18.97;;;8.20;;
69305;SDS011;56427;51.580;4.656;2024-01-07T04:49:23;18.13;;;9.93;;
69305;SDS011;56427;51.580;4.656;2024-01-07T04:51:48;27.50;;;13.30;;
69305;SDS011;56427;51.580;4.656;2024-01-07T04:54:13;23.80;;;10.87;;
69305;SDS011;56427;51.580;4.656;2024-01-07T04:56:39;28.90;;;14.70;;
69305;SDS011;56427;51.580;4.656;2024-01-07T04:59:04;22.90;;;12.27;;
69305;SDS011;56427;51.580;4.656;2024-01-07T05:01:32;22.50;;;11.63;;
69305;SDS011;56427;51.580;4.656;2024-01-07T05:03:57;23.77;;;11.68;;
69305;SDS011;56427;51.580;4.656;2024-01-07T05:06:23;26.90;;;13.53;;
69305;SDS011;56427;51.580;4.656;2024-01-07T05:08:48;21.07;;;10.83;;
69305;SDS011;56427;51.580;4.656;2024-01-07T05:11:13;36.07;;;15.50;;
69305;SDS011;56427;51.580;4.656;2024-01-07T05:13:39;17.10;;;9.82;;
69305;SDS011;56427;51.580;4.656;2024-01-07T05:16:04;25.75;;;13.40;;
69305;SDS011;56427;51.580;4.656;2024-01-07T05:18:30;23.80;;;12.07;;
69305;SDS011;56427;51.580;4.656;2024-01-07T05:20:55;31.27;;;15.43;;
69305;SDS011;56427;51.580;4.656;2024-01-07T05:23:20;32.37;;;15.87;;
69305;SDS011;56427;51.580;4.656;2024-01-07T05:25:46;31.10;;;15.30;;
69305;SDS011;56427;51.580;4.656;2024-01-07T05:28:11;28.37;;;14.70;;
69305;SDS011;56427;51.580;4.656;2024-01-07T05:30:37;26.17;;;14.13;;
69305;SDS011;56427;51.580;4.656;2024-01-07T05:33:03;22.48;;;11.65;;
69305;SDS011;56427;51.580;4.656;2024-01-07T05:35:29;29.57;;;14.27;;
69305;SDS011;56427;51.580;4.656;2024-01-07T05:37:55;28.15;;;13.52;;
69305;SDS011;56427;51.580;4.656;2024-01-07T05:40:21;33.10;;;14.70;;
69305;SDS011;56427;51.580;4.656;2024-01-07T05:42:46;30.45;;;15.13;;
69305;SDS011;56427;51.580;4.656;2024-01-07T05:45:12;31.57;;;15.40;;
69305;SDS011;56427;51.580;4.656;2024-01-07T05:47:37;27.80;;;13.60;;
69305;SDS011;56427;51.580;4.656;2024-01-07T05:50:03;26.27;;;13.73;;
69305;SDS011;56427;51.580;4.656;2024-01-07T05:52:28;30.38;;;15.20;;
69305;SDS011;56427;51.580;4.656;2024-01-07T05:54:54;25.50;;;13.80;;
69305;SDS011;56427;51.580;4.656;2024-01-07T05:57:19;33.10;;;16.87;;
69305;SDS011;56427;51.580;4.656;2024-01-07T05:59:44;33.93;;;16.53;;
69305;SDS011;56427;51.580;4.656;2024-01-07T06:02:10;30.88;;;14.57;;
69305;SDS011;56427;51.580;4.656;2024-01-07T06:04:38;32.93;;;15.33;;
69305;SDS011;56427;51.580;4.656;2024-01-07T06:07:04;30.88;;;15.35;;
69305;SDS011;56427;51.580;4.656;2024-01-07T06:09:29;40.27;;;17.20;;
69305;SDS011;56427;51.580;4.656;2024-01-07T06:11:55;25.03;;;12.23;;
69305;SDS011;56427;51.580;4.656;2024-01-07T06:14:21;25.95;;;13.88;;
69305;SDS011;56427;51.580;4.656;2024-01-07T06:16:47;40.47;;;19.63;;
69305;SDS011;56427;51.580;4.656;2024-01-07T06:19:12;26.17;;;13.95;;
69305;SDS011;56427;51.580;4.656;2024-01-07T06:21:39;29.63;;;14.07;;
69305;SDS011;56427;51.580;4.656;2024-01-07T06:24:05;24.65;;;13.05;;
69305;SDS011;56427;51.580;4.656;2024-01-07T06:26:32;33.17;;;15.50;;
69305;SDS011;56427;51.580;4.656;2024-01-07T06:28:58;35.30;;;16.93;;
69305;SDS011;56427;51.580;4.656;2024-01-07T06:31:23;26.13;;;13.33;;
69305;SDS011;56427;51.580;4.656;2024-01-07T06:33:49;39.43;;;18.77;;
69305;SDS011;56427;51.580;4.656;2024-01-07T06:36:14;26.27;;;11.10;;
69305;SDS011;56427;51.580;4.656;2024-01-07T06:38:39;35.30;;;16.73;;
69305;SDS011;56427;51.580;4.656;2024-01-07T06:41:05;25.20;;;12.73;;
69305;SDS011;56427;51.580;4.656;2024-01-07T06:43:30;22.80;;;13.23;;
69305;SDS011;56427;51.580;4.656;2024-01-07T06:45:57;28.45;;;14.82;;
69305;SDS011;56427;51.580;4.656;2024-01-07T06:48:22;31.67;;;16.40;;
69305;SDS011;56427;51.580;4.656;2024-01-07T06:50:47;27.47;;;13.37;;
69305;SDS011;56427;51.580;4.656;2024-01-07T06:53:13;31.63;;;16.10;;
69305;SDS011;56427;51.580;4.656;2024-01-07T06:55:39;29.97;;;14.77;;
69305;SDS011;56427;51.580;4.656;2024-01-07T06:58:04;36.40;;;17.42;;
69305;SDS011;56427;51.580;4.656;2024-01-07T07:00:30;29.97;;;14.80;;
69305;SDS011;56427;51.580;4.656;2024-01-07T07:02:55;34.33;;;16.00;;
69305;SDS011;56427;51.580;4.656;2024-01-07T07:05:21;41.60;;;19.93;;
69305;SDS011;56427;51.580;4.656;2024-01-07T07:07:46;30.37;;;14.07;;
69305;SDS011;56427;51.580;4.656;2024-01-07T07:10:11;38.50;;;17.00;;
69305;SDS011;56427;51.580;4.656;2024-01-07T07:12:37;33.13;;;14.50;;
69305;SDS011;56427;51.580;4.656;2024-01-07T07:15:02;31.90;;;16.73;;
69305;SDS011;56427;51.580;4.656;2024-01-07T07:17:27;33.03;;;15.82;;
69305;SDS011;56427;51.580;4.656;2024-01-07T07:19:53;27.90;;;15.77;;
69305;SDS011;56427;51.580;4.656;2024-01-07T07:22:18;29.10;;;13.43;;
69305;SDS011;56427;51.580;4.656;2024-01-07T07:24:43;25.20;;;11.57;;
69305;SDS011;56427;51.580;4.656;2024-01-07T07:27:09;35.63;;;15.73;;
69305;SDS011;56427;51.580;4.656;2024-01-07T07:29:34;26.60;;;12.90;;
69305;SDS011;56427;51.580;4.656;2024-01-07T07:32:00;29.43;;;13.63;;
69305;SDS011;56427;51.580;4.656;2024-01-07T07:34:25;34.45;;;15.10;;
69305;SDS011;56427;51.580;4.656;2024-01-07T07:36:50;31.00;;;15.40;;
69305;SDS011;56427;51.580;4.656;2024-01-07T07:39:16;24.77;;;13.83;;
69305;SDS011;56427;51.580;4.656;2024-01-07T07:41:42;33.13;;;17.37;;
69305;SDS011;56427;51.580;4.656;2024-01-07T07:44:07;23.42;;;12.93;;
69305;SDS011;56427;51.580;4.656;2024-01-07T07:46:32;31.97;;;14.73;;
69305;SDS011;56427;51.580;4.656;2024-01-07T07:48:58;30.03;;;14.73;;
69305;SDS011;56427;51.580;4.656;2024-01-07T07:51:23;23.53;;;12.27;;
69305;SDS011;56427;51.580;4.656;2024-01-07T07:53:49;26.37;;;13.87;;
69305;SDS011;56427;51.580;4.656;2024-01-07T07:56:14;28.33;;;15.27;;
69305;SDS011;56427;51.580;4.656;2024-01-07T07:58:41;17.27;;;9.70;;
69305;SDS011;56427;51.580;4.656;2024-01-07T08:01:06;21.30;;;10.57;;
69305;SDS011;56427;51.580;4.656;2024-01-07T08:03:31;23.90;;;12.13;;
69305;SDS011;56427;51.580;4.656;2024-01-07T08:05:57;18.80;;;10.70;;
69305;SDS011;56427;51.580;4.656;2024-01-07T08:08:23;20.57;;;11.60;;
69305;SDS011;56427;51.580;4.656;2024-01-07T08:10:48;21.15;;;11.75;;
69305;SDS011;56427;51.580;4.656;2024-01-07T08:13:13;16.45;;;10.13;;
69305;SDS011;56427;51.580;4.656;2024-01-07T08:15:39;19.30;;;10.57;;
69305;SDS011;56427;51.580;4.656;2024-01-07T08:18:05;22.17;;;12.00;;
69305;SDS011;56427;51.580;4.656;2024-01-07T08:20:30;22.52;;;11.57;;
69305;SDS011;56427;51.580;4.656;2024-01-07T08:22:55;17.23;;;10.00;;
69305;SDS011;56427;51.580;4.656;2024-01-07T08:25:21;20.20;;;9.57;;
69305;SDS011;56427;51.580;4.656;2024-01-07T08:27:47;20.60;;;11.75;;
69305;SDS011;56427;51.580;4.656;2024-01-07T08:30:13;23.33;;;11.67;;
69305;SDS011;56427;51.580;4.656;2024-01-07T08:32:39;15.10;;;8.63;;
69305;SDS011;56427;51.580;4.656;2024-01-07T08:35:04;17.83;;;9.45;;
69305;SDS011;56427;51.580;4.656;2024-01-07T08:37:30;20.70;;;10.30;;
69305;SDS011;56427;51.580;4.656;2024-01-07T08:39:55;18.70;;;10.55;;
69305;SDS011;56427;51.580;4.656;2024-01-07T08:42:21;19.17;;;10.33;;
69305;SDS011;56427;51.580;4.656;2024-01-07T08:44:46;26.13;;;12.97;;
69305;SDS011;56427;51.580;4.656;2024-01-07T08:47:12;20.20;;;11.02;;
69305;SDS011;56427;51.580;4.656;2024-01-07T08:49:38;21.27;;;11.82;;
69305;SDS011;56427;51.580;4.656;2024-01-07T08:52:03;20.50;;;11.60;;
69305;SDS011;56427;51.580;4.656;2024-01-07T08:54:29;21.70;;;11.93;;
69305;SDS011;56427;51.580;4.656;2024-01-07T08:56:55;18.80;;;10.60;;
69305;SDS011;56427;51.580;4.656;2024-01-07T08:59:20;19.80;;;10.20;;
69305;SDS011;56427;51.580;4.656;2024-01-07T09:01:45;20.55;;;11.63;;
69305;SDS011;56427;51.580;4.656;2024-01-07T09:04:11;25.50;;;12.63;;
69305;SDS011;56427;51.580;4.656;2024-01-07T09:06:36;16.57;;;9.00;;
69305;SDS011;56427;51.580;4.656;2024-01-07T09:09:01;17.43;;;10.37;;
69305;SDS011;56427;51.580;4.656;2024-01-07T09:11:30;22.52;;;11.55;;
69305;SDS011;56427;51.580;4.656;2024-01-07T09:13:56;20.13;;;11.23;;
69305;SDS011;56427;51.580;4.656;2024-01-07T09:16:21;18.13;;;11.43;;
69305;SDS011;56427;51.580;4.656;2024-01-07T09:18:46;15.87;;;10.13;;
69305;SDS011;56427;51.580;4.656;2024-01-07T09:21:12;17.63;;;9.40;;
69305;SDS011;56427;51.580;4.656;2024-01-07T09:23:37;18.25;;;10.15;;
69305;SDS011;56427;51.580;4.656;2024-01-07T09:26:03;20.90;;;10.77;;
69305;SDS011;56427;51.580;4.656;2024-01-07T09:28:28;16.03;;;10.30;;
69305;SDS011;56427;51.580;4.656;2024-01-07T09:30:54;20.67;;;11.07;;
69305;SDS011;56427;51.580;4.656;2024-01-07T09:33:19;16.30;;;9.73;;
69305;SDS011;56427;51.580;4.656;2024-01-07T09:35:47;21.13;;;11.38;;
69305;SDS011;56427;51.580;4.656;2024-01-07T09:38:13;23.57;;;12.23;;
69305;SDS011;56427;51.580;4.656;2024-01-07T09:40:38;21.23;;;12.60;;
69305;SDS011;56427;51.580;4.656;2024-01-07T09:43:04;19.27;;;12.00;;
69305;SDS011;56427;51.580;4.656;2024-01-07T09:45:30;16.58;;;9.88;;
69305;SDS011;56427;51.580;4.656;2024-01-07T09:47:56;17.77;;;8.97;;
69305;SDS011;56427;51.580;4.656;2024-01-07T09:50:21;22.60;;;12.90;;
69305;SDS011;56427;51.580;4.656;2024-01-07T09:52:47;20.02;;;11.35;;
69305;SDS011;56427;51.580;4.656;2024-01-07T09:55:24;21.67;;;10.52;;
69305;SDS011;56427;51.580;4.656;2024-01-07T09:57:55;16.00;;;9.67;;
69305;SDS011;56427;51.580;4.656;2024-01-07T10:00:20;17.77;;;8.75;;
69305;SDS011;56427;51.580;4.656;2024-01-07T10:02:45;22.07;;;10.63;;
69305;SDS011;56427;51.580;4.656;2024-01-07T10:05:11;17.33;;;9.37;;
69305;SDS011;56427;51.580;4.656;2024-01-07T10:07:36;19.30;;;11.10;;
69305;SDS011;56427;51.580;4.656;2024-01-07T10:10:14;18.23;;;10.80;;
69305;SDS011;56427;51.580;4.656;2024-01-07T10:12:41;16.45;;;10.60;;
69305;SDS011;56427;51.580;4.656;2024-01-07T10:15:06;16.70;;;10.53;;
69305;SDS011;56427;51.580;4.656;2024-01-07T10:17:32;13.60;;;8.95;;
69305;SDS011;56427;51.580;4.656;2024-01-07T10:19:58;20.27;;;11.88;;
69305;SDS011;56427;51.580;4.656;2024-01-07T10:22:23;18.92;;;11.68;;
69305;SDS011;56427;51.580;4.656;2024-01-07T10:24:51;16.10;;;10.00;;
69305;SDS011;56427;51.580;4.656;2024-01-07T10:27:16;18.83;;;11.05;;
69305;SDS011;56427;51.580;4.656;2024-01-07T10:29:41;11.70;;;8.23;;
69305;SDS011;56427;51.580;4.656;2024-01-07T10:32:07;14.27;;;9.30;;
69305;SDS011;56427;51.580;4.656;2024-01-07T10:34:36;13.50;;;8.23;;
69305;SDS011;56427;51.580;4.656;2024-01-07T10:37:02;10.67;;;7.57;;
69305;SDS011;56427;51.580;4.656;2024-01-07T10:39:29;13.32;;;9.00;;
69305;SDS011;56427;51.580;4.656;2024-01-07T10:41:55;12.82;;;8.10;;
69305;SDS011;56427;51.580;4.656;2024-01-07T10:44:28;13.88;;;8.43;;
69305;SDS011;56427;51.580;4.656;2024-01-07T10:46:58;10.68;;;6.72;;
69305;SDS011;56427;51.580;4.656;2024-01-07T10:49:25;10.53;;;6.87;;
69305;SDS011;56427;51.580;4.656;2024-01-07T10:54:28;14.57;;;9.52;;
69305;SDS011;56427;51.580;4.656;2024-01-07T10:56:55;14.30;;;8.25;;
69305;SDS011;56427;51.580;4.656;2024-01-07T10:59:24;16.63;;;10.15;;
69305;SDS011;56427;51.580;4.656;2024-01-07T11:01:51;15.03;;;8.27;;
69305;SDS011;56427;51.580;4.656;2024-01-07T11:04:20;10.02;;;5.97;;
69305;SDS011;56427;51.580;4.656;2024-01-07T11:09:33;15.45;;;8.32;;
69305;SDS011;56427;51.580;4.656;2024-01-07T11:12:04;19.15;;;9.45;;
69305;SDS011;56427;51.580;4.656;2024-01-07T11:14:48;12.83;;;7.47;;
69305;SDS011;56427;51.580;4.656;2024-01-07T11:20:01;14.82;;;8.48;;
69305;SDS011;56427;51.580;4.656;2024-01-07T11:22:28;14.48;;;8.30;;
69305;SDS011;56427;51.580;4.656;2024-01-07T11:24:54;11.47;;;7.77;;
69305;SDS011;56427;51.580;4.656;2024-01-07T11:27:25;16.35;;;8.50;;
69305;SDS011;56427;51.580;4.656;2024-01-07T11:29:54;12.07;;;6.70;;
69305;SDS011;56427;51.580;4.656;2024-01-07T11:32:21;15.35;;;8.70;;
69305;SDS011;56427;51.580;4.656;2024-01-07T11:34:47;15.87;;;7.20;;
69305;SDS011;56427;51.580;4.656;2024-01-07T11:37:16;13.57;;;8.23;;
69305;SDS011;56427;51.580;4.656;2024-01-07T11:39:45;15.65;;;8.45;;
69305;SDS011;56427;51.580;4.656;2024-01-07T11:42:12;12.23;;;7.57;;
69305;SDS011;56427;51.580;4.656;2024-01-07T11:44:37;9.33;;;5.73;;
69305;SDS011;56427;51.580;4.656;2024-01-07T11:47:09;11.20;;;7.30;;
69305;SDS011;56427;51.580;4.656;2024-01-07T11:49:35;11.43;;;6.37;;
69305;SDS011;56427;51.580;4.656;2024-01-07T11:52:00;12.53;;;6.43;;
69305;SDS011;56427;51.580;4.656;2024-01-07T11:54:27;12.73;;;7.25;;
69305;SDS011;56427;51.580;4.656;2024-01-07T11:56:53;12.13;;;6.80;;
69305;SDS011;56427;51.580;4.656;2024-01-07T11:59:19;9.35;;;6.72;;
69305;SDS011;56427;51.580;4.656;2024-01-07T12:01:44;9.87;;;6.47;;
69305;SDS011;56427;51.580;4.656;2024-01-07T12:04:09;13.40;;;7.20;;
69305;SDS011;56427;51.580;4.656;2024-01-07T12:06:36;10.88;;;6.57;;
69305;SDS011;56427;51.580;4.656;2024-01-07T12:09:03;12.05;;;7.40;;
69305;SDS011;56427;51.580;4.656;2024-01-07T12:11:28;12.03;;;7.77;;
69305;SDS011;56427;51.580;4.656;2024-01-07T12:13:54;17.80;;;8.40;;
69305;SDS011;56427;51.580;4.656;2024-01-07T12:16:20;16.30;;;8.27;;
69305;SDS011;56427;51.580;4.656;2024-01-07T12:18:45;16.90;;;8.43;;
69305;SDS011;56427;51.580;4.656;2024-01-07T12:21:11;17.42;;;7.15;;
69305;SDS011;56427;51.580;4.656;2024-01-07T12:23:43;16.42;;;8.98;;
69305;SDS011;56427;51.580;4.656;2024-01-07T12:26:08;18.00;;;9.10;;
69305;SDS011;56427;51.580;4.656;2024-01-07T12:28:35;13.27;;;7.30;;
69305;SDS011;56427;51.580;4.656;2024-01-07T12:31:02;16.08;;;8.27;;
69305;SDS011;56427;51.580;4.656;2024-01-07T12:33:28;13.00;;;7.40;;
69305;SDS011;56427;51.580;4.656;2024-01-07T12:35:57;12.45;;;6.55;;
69305;SDS011;56427;51.580;4.656;2024-01-07T12:38:29;12.03;;;7.47;;
69305;SDS011;56427;51.580;4.656;2024-01-07T12:40:54;14.52;;;7.40;;
69305;SDS011;56427;51.580;4.656;2024-01-07T12:43:21;16.55;;;7.85;;
69305;SDS011;56427;51.580;4.656;2024-01-07T12:45:47;12.02;;;7.30;;
69305;SDS011;56427;51.580;4.656;2024-01-07T12:48:14;11.18;;;6.70;;
69305;SDS011;56427;51.580;4.656;2024-01-07T12:50:39;13.63;;;6.63;;
69305;SDS011;56427;51.580;4.656;2024-01-07T12:53:05;10.00;;;6.17;;
69305;SDS011;56427;51.580;4.656;2024-01-07T12:55:30;8.90;;;5.85;;
69305;SDS011;56427;51.580;4.656;2024-01-07T12:57:56;9.43;;;6.40;;
69305;SDS011;56427;51.580;4.656;2024-01-07T13:00:22;10.27;;;5.47;;
69305;SDS011;56427;51.580;4.656;2024-01-07T13:02:47;7.95;;;4.30;;
69305;SDS011;56427;51.580;4.656;2024-01-07T13:05:13;9.27;;;6.00;;
69305;SDS011;56427;51.580;4.656;2024-01-07T13:07:39;10.00;;;5.03;;
69305;SDS011;56427;51.580;4.656;2024-01-07T13:10:04;7.47;;;5.23;;
69305;SDS011;56427;51.580;4.656;2024-01-07T13:12:31;8.48;;;5.57;;
69305;SDS011;56427;51.580;4.656;2024-01-07T13:14:56;8.13;;;4.57;;
69305;SDS011;56427;51.580;4.656;2024-01-07T13:17:21;10.30;;;4.87;;
69305;SDS011;56427;51.580;4.656;2024-01-07T13:19:47;7.07;;;3.83;;
69305;SDS011;56427;51.580;4.656;2024-01-07T13:22:12;7.30;;;4.33;;
69305;SDS011;56427;51.580;4.656;2024-01-07T13:24:38;7.57;;;5.47;;
69305;SDS011;56427;51.580;4.656;2024-01-07T13:27:04;10.50;;;5.03;;
69305;SDS011;56427;51.580;4.656;2024-01-07T13:29:29;7.57;;;5.15;;
69305;SDS011;56427;51.580;4.656;2024-01-07T13:31:55;8.52;;;5.93;;
69305;SDS011;56427;51.580;4.656;2024-01-07T13:34:20;7.50;;;4.90;;
69305;SDS011;56427;51.580;4.656;2024-01-07T13:36:45;6.77;;;4.70;;
69305;SDS011;56427;51.580;4.656;2024-01-07T13:39:11;7.13;;;3.90;;
69305;SDS011;56427;51.580;4.656;2024-01-07T13:41:36;6.82;;;4.55;;
69305;SDS011;56427;51.580;4.656;2024-01-07T13:44:02;8.33;;;4.53;;
69305;SDS011;56427;51.580;4.656;2024-01-07T13:46:32;8.43;;;5.25;;
69305;SDS011;56427;51.580;4.656;2024-01-07T13:48:57;8.33;;;5.23;;
69305;SDS011;56427;51.580;4.656;2024-01-07T13:51:23;6.20;;;4.27;;
69305;SDS011;56427;51.580;4.656;2024-01-07T13:53:48;5.20;;;3.50;;
69305;SDS011;56427;51.580;4.656;2024-01-07T13:56:14;6.33;;;4.10;;
69305;SDS011;56427;51.580;4.656;2024-01-07T13:58:40;6.20;;;4.13;;
69305;SDS011;56427;51.580;4.656;2024-01-07T14:01:05;9.38;;;3.78;;
69305;SDS011;56427;51.580;4.656;2024-01-07T14:03:31;4.25;;;2.83;;
69305;SDS011;56427;51.580;4.656;2024-01-07T14:05:58;5.50;;;3.67;;
69305;SDS011;56427;51.580;4.656;2024-01-07T14:08:26;4.05;;;2.55;;
69305;SDS011;56427;51.580;4.656;2024-01-07T14:10:52;4.65;;;2.03;;
69305;SDS011;56427;51.580;4.656;2024-01-07T14:13:17;4.77;;;2.73;;
69305;SDS011;56427;51.580;4.656;2024-01-07T14:15:43;6.80;;;3.20;;
69305;SDS011;56427;51.580;4.656;2024-01-07T14:18:08;4.70;;;2.22;;
69305;SDS011;56427;51.580;4.656;2024-01-07T14:20:35;4.97;;;2.47;;
69305;SDS011;56427;51.580;4.656;2024-01-07T14:23:00;6.40;;;3.03;;
69305;SDS011;56427;51.580;4.656;2024-01-07T14:25:26;3.92;;;2.33;;
69305;SDS011;56427;51.580;4.656;2024-01-07T14:27:51;3.90;;;2.10;;